createdAt,value
2023-02-03T00:04:34.080Z,100781.25
2023-02-03T00:09:35.741Z,100764.19
2023-02-03T00:14:38.099Z,100766.53
2023-02-03T00:19:39.949Z,100776.38
2023-02-03T00:24:41.621Z,100785.06
2023-02-03T00:29:43.249Z,100795.00
2023-02-03T00:34:44.991Z,100795.44
2023-02-03T00:39:46.703Z,100794.81
2023-02-03T00:44:48.583Z,100796.25
2023-02-03T00:49:50.565Z,100787.63
2023-02-03T00:54:52.221Z,100786.00
2023-02-03T00:59:54.930Z,100792.94
2023-02-03T01:04:56.615Z,100783.16
2023-02-03T01:09:58.514Z,100762.00
2023-02-03T01:15:00.205Z,100757.09
2023-02-03T01:20:02.046Z,100751.81
2023-02-03T01:25:04.297Z,100742.41
2023-02-03T01:30:06.919Z,100738.03
2023-02-03T01:35:09.347Z,100733.41
2023-02-03T01:40:11.563Z,100739.81
2023-02-03T01:45:13.784Z,100726.97
2023-02-03T01:50:31.803Z,100734.44
2023-02-03T01:55:38.726Z,100737.84
2023-02-03T02:00:41.114Z,100735.03
2023-02-03T02:05:50.849Z,100745.91
2023-02-03T02:10:53.500Z,100736.06
2023-02-03T02:16:20.145Z,100727.59
2023-02-03T02:21:46.301Z,100727.50
2023-02-03T02:27:18.215Z,100729.13
2023-02-03T02:33:07.377Z,100723.97
2023-02-03T02:38:25.721Z,100731.00
2023-02-03T02:43:46.684Z,100730.56
2023-02-03T02:48:55.915Z,100738.78
2023-02-03T02:54:05.649Z,100729.03
2023-02-03T02:59:08.037Z,100728.41
2023-02-03T03:04:12.449Z,100720.03
2023-02-03T03:09:22.712Z,100701.22
2023-02-03T03:14:27.966Z,100693.00
2023-02-03T03:19:38.003Z,100696.44
2023-02-03T03:24:54.418Z,100706.50
2023-02-03T03:30:23.817Z,100723.22
2023-02-03T03:35:37.088Z,100708.06
2023-02-03T03:40:45.411Z,100711.97
2023-02-03T03:45:56.150Z,100714.22
2023-02-03T03:51:07.235Z,100710.13
2023-02-03T03:56:14.229Z,100722.53
2023-02-03T04:01:16.767Z,100722.97
2023-02-03T04:06:18.567Z,100744.16
2023-02-03T04:11:38.747Z,100742.88
2023-02-03T04:16:40.519Z,100713.66
2023-02-03T04:21:42.185Z,100721.09
2023-02-03T04:26:43.907Z,100724.09
2023-02-03T04:31:45.662Z,100711.66
2023-02-03T04:36:47.303Z,100701.91
2023-02-03T04:41:49.108Z,100693.19
2023-02-03T04:46:50.874Z,100675.47
2023-02-03T04:51:52.564Z,100669.28
2023-02-03T04:56:54.251Z,100659.81
2023-02-03T05:01:55.884Z,100640.97
2023-02-03T05:06:57.821Z,100651.63
2023-02-03T05:11:59.638Z,100654.72
2023-02-03T05:17:01.338Z,100644.41
2023-02-03T05:22:02.966Z,100648.38
2023-02-03T05:27:04.648Z,100645.47
2023-02-03T05:32:06.506Z,100641.13
2023-02-03T05:37:08.127Z,100632.03
2023-02-03T05:42:09.748Z,100622.66
2023-02-03T05:47:11.316Z,100609.41
2023-02-03T05:52:13.150Z,100612.56
2023-02-03T05:57:14.839Z,100610.06
2023-02-03T06:02:16.447Z,100614.19
2023-02-03T06:07:18.725Z,100599.16
2023-02-03T06:12:20.575Z,100603.63
2023-02-03T06:17:22.193Z,100600.94
2023-02-03T06:22:24.271Z,100598.31
2023-02-03T06:27:26.023Z,100584.84
2023-02-03T06:32:27.757Z,100578.47
2023-02-03T06:37:29.510Z,100573.38
2023-02-03T06:42:31.803Z,100582.91
2023-02-03T06:47:33.403Z,100570.13
2023-02-03T06:52:35.004Z,100568.06
2023-02-03T06:57:43.552Z,100556.63
2023-02-03T07:02:46.009Z,100553.63
2023-02-03T07:07:47.868Z,100542.38
2023-02-03T07:12:50.774Z,100546.94
2023-02-03T07:17:55.004Z,100533.13
2023-02-03T07:22:58.486Z,100534.25
2023-02-03T07:28:00.374Z,100516.16
2023-02-03T07:33:02.325Z,100520.50
2023-02-03T07:38:04.067Z,100515.00
2023-02-03T07:43:05.898Z,100509.78
2023-02-03T07:48:07.554Z,100509.38
2023-02-03T07:53:09.544Z,100509.78
2023-02-03T07:58:11.261Z,100483.78
2023-02-03T08:03:13.004Z,100480.19
2023-02-03T08:08:14.688Z,100473.25
2023-02-03T08:13:16.299Z,100452.00
2023-02-03T08:18:18.078Z,100438.34
2023-02-03T08:23:20.098Z,100419.09
2023-02-03T08:28:21.823Z,100409.72
2023-02-03T08:33:23.909Z,100402.97
2023-02-03T08:38:25.868Z,100389.84
2023-02-03T08:43:28.192Z,100369.31
2023-02-03T08:48:29.844Z,100362.94
2023-02-03T08:53:31.471Z,100352.25
2023-02-03T08:58:33.154Z,100358.50
2023-02-03T09:03:34.920Z,100336.63
2023-02-03T09:08:38.853Z,100316.25
2023-02-03T09:13:40.965Z,100319.09
2023-02-03T09:18:43.537Z,100318.25
2023-02-03T09:23:45.779Z,100303.59
2023-02-03T09:28:47.707Z,100318.94
2023-02-03T09:33:49.520Z,100299.09
2023-02-03T09:38:51.781Z,100291.09
2023-02-03T09:43:56.537Z,100281.31
2023-02-03T09:49:03.143Z,100269.16
2023-02-03T09:54:17.713Z,100257.03
2023-02-03T09:59:19.906Z,100237.75
2023-02-03T10:04:40.197Z,100245.56
2023-02-03T10:09:55.036Z,100234.97
2023-02-03T10:15:02.732Z,100228.50
2023-02-03T10:20:13.650Z,100220.97
2023-02-03T10:25:38.624Z,100233.81
2023-02-03T10:30:45.690Z,100219.84
2023-02-03T10:36:05.518Z,100182.50
2023-02-03T10:41:07.455Z,100173.41
2023-02-03T10:46:09.406Z,100175.78
2023-02-03T10:51:19.646Z,100177.44
2023-02-03T10:56:29.648Z,100193.34
2023-02-03T11:01:31.267Z,100163.22
2023-02-03T11:06:37.007Z,100173.41
2023-02-03T11:11:41.800Z,100168.28
2023-02-03T11:16:44.580Z,100171.00
2023-02-03T11:21:52.294Z,100149.22
2023-02-03T11:27:18.539Z,100151.88
2023-02-03T11:32:35.231Z,100127.66
2023-02-03T11:37:42.088Z,100136.06
2023-02-03T11:42:46.314Z,100111.50
2023-02-03T11:47:54.015Z,100087.09
2023-02-03T11:52:58.434Z,100069.28
2023-02-03T11:58:00.350Z,100070.97
2023-02-03T12:03:30.080Z,100067.91
2023-02-03T12:08:31.641Z,100048.69
2023-02-03T12:14:01.086Z,100021.88
2023-02-03T12:19:15.185Z,100015.66
2023-02-03T12:24:33.661Z,100002.75
2023-02-03T12:29:43.976Z,99994.97
2023-02-03T12:35:27.718Z,99977.09
2023-02-03T12:40:41.043Z,99933.66
2023-02-03T12:46:04.849Z,99941.19
2023-02-03T12:51:14.718Z,99894.00
2023-02-03T12:56:23.022Z,99879.47
2023-02-03T13:01:31.866Z,99849.50
2023-02-03T13:06:49.989Z,99840.28
2023-02-03T13:12:04.318Z,99833.94
2023-02-03T13:17:12.420Z,99798.72
2023-02-03T13:22:17.233Z,99810.53
2023-02-03T13:27:28.355Z,99777.19
2023-02-03T13:32:45.221Z,99754.84
2023-02-03T13:37:53.408Z,99725.78
2023-02-03T13:43:06.067Z,99745.88
2023-02-03T13:48:24.423Z,99758.34
2023-02-03T13:53:26.842Z,99744.13
2023-02-03T13:58:31.988Z,99757.38
2023-02-03T14:03:36.876Z,99788.50
2023-02-03T14:08:38.474Z,99803.41
2023-02-03T14:13:40.134Z,99787.69
2023-02-03T14:18:46.196Z,99806.94
2023-02-03T14:23:59.065Z,99834.16
2023-02-03T14:29:03.226Z,99837.19
2023-02-03T14:34:13.352Z,99831.00
2023-02-03T14:39:18.020Z,99806.72
2023-02-03T14:44:19.571Z,99824.25
2023-02-03T14:49:32.828Z,99814.97
2023-02-03T14:54:51.409Z,99782.66
2023-02-03T15:00:27.150Z,99791.75
2023-02-03T15:05:29.773Z,99788.53
2023-02-03T15:10:45.191Z,99773.53
2023-02-03T15:15:50.122Z,99765.94
2023-02-03T15:20:56.096Z,99767.50
2023-02-03T15:26:13.147Z,99748.53
2023-02-03T15:31:23.622Z,99763.38
2023-02-03T15:36:32.829Z,99744.44
2023-02-03T15:41:34.863Z,99760.69
2023-02-03T15:46:43.813Z,99773.47
2023-02-03T15:52:11.628Z,99747.34
2023-02-03T15:57:23.579Z,99737.59
2023-02-03T16:02:36.749Z,99726.22
2023-02-03T16:07:38.528Z,99703.88
2023-02-03T16:12:41.558Z,99665.50
2023-02-03T16:17:43.333Z,99677.19
2023-02-03T16:22:47.817Z,99638.88
2023-02-03T16:28:30.301Z,99652.28
2023-02-03T16:33:53.330Z,99649.91
2023-02-03T16:39:14.270Z,99639.25
2023-02-03T16:44:34.541Z,99652.81
2023-02-03T16:49:54.807Z,99652.06
2023-02-03T16:54:56.590Z,99658.81
2023-02-03T16:59:58.267Z,99639.72
2023-02-03T17:05:00.243Z,99634.78
2023-02-03T17:10:02.244Z,99654.66
2023-02-03T17:15:07.962Z,99683.09
2023-02-03T17:20:10.638Z,99643.09
2023-02-03T17:25:12.548Z,99643.16
2023-02-03T17:30:14.590Z,99646.66
2023-02-03T17:35:16.377Z,99673.28
2023-02-03T17:56:36.140Z,99794.69
2023-02-03T18:01:39.140Z,99832.72
2023-02-03T18:06:40.971Z,99807.69
2023-02-03T18:11:42.839Z,99834.16
2023-02-03T18:16:45.150Z,99830.34
2023-02-03T18:21:46.879Z,99833.41
2023-02-03T18:26:51.856Z,99815.91
2023-02-03T18:31:53.716Z,99829.16
2023-02-03T18:36:56.586Z,99837.47
2023-02-03T18:41:58.289Z,99845.03
2023-02-03T18:47:07.090Z,99863.41
2023-02-03T18:52:09.150Z,99875.66
2023-02-03T18:57:13.975Z,99878.03
2023-02-03T19:02:15.860Z,99882.97
2023-02-03T19:07:17.733Z,99881.16
2023-02-03T19:12:19.349Z,99873.28
2023-02-03T19:17:22.977Z,99887.38
2023-02-03T19:22:25.871Z,99878.59
2023-02-03T19:27:27.885Z,99879.63
2023-02-03T19:32:31.107Z,99889.59
2023-02-03T19:37:32.816Z,99889.91
2023-02-03T19:42:34.412Z,99899.25
2023-02-03T19:47:36.245Z,99880.66
2023-02-03T19:52:38.053Z,99896.47
2023-02-03T19:57:40.288Z,99890.44
2023-02-03T20:02:42.080Z,99882.34
2023-02-03T20:07:44.154Z,99879.03
2023-02-03T20:12:46.384Z,99871.69
2023-02-03T20:17:48.506Z,99884.28
2023-02-03T20:22:50.541Z,99870.81
2023-02-03T20:27:53.608Z,99880.84
2023-02-03T20:32:56.236Z,99869.19
2023-02-03T20:37:58.087Z,99856.88
2023-02-03T20:43:05.984Z,99864.31
2023-02-03T20:48:11.784Z,99860.16
2023-02-03T20:53:17.476Z,99842.41
2023-02-03T20:58:24.171Z,99839.34
2023-02-03T21:03:45.628Z,99830.47
2023-02-03T21:08:48.262Z,99814.28
2023-02-03T21:13:50.041Z,99826.03
2023-02-03T21:18:56.686Z,99825.72
2023-02-03T21:23:58.347Z,99823.50
2023-02-03T21:29:01.565Z,99830.50
2023-02-03T21:34:16.924Z,99832.22
2023-02-03T21:39:28.564Z,99835.69
2023-02-03T21:44:36.052Z,99846.59
2023-02-03T21:49:41.125Z,99842.69
2023-02-03T21:54:44.597Z,99850.28
2023-02-03T21:59:52.973Z,99866.97
2023-02-03T22:04:55.520Z,99856.25
2023-02-03T22:09:57.264Z,99856.31
2023-02-03T22:14:58.866Z,99868.16
2023-02-03T22:20:00.450Z,99858.22
2023-02-03T22:25:02.088Z,99856.00
2023-02-03T22:30:05.329Z,99858.56
2023-02-03T22:35:09.195Z,99858.72
2023-02-03T22:40:11.466Z,99862.09
2023-02-03T22:45:13.488Z,99856.34
2023-02-03T22:50:17.490Z,99868.09
2023-02-03T22:55:22.535Z,99868.97
2023-02-03T23:00:25.200Z,99851.38
2023-02-03T23:05:27.075Z,99839.00
2023-02-03T23:10:32.753Z,99844.88
2023-02-03T23:15:34.579Z,99844.81
2023-02-03T23:20:36.246Z,99838.94
2023-02-03T23:25:38.099Z,99851.66
2023-02-03T23:30:39.804Z,99838.47
2023-02-03T23:35:49.271Z,99826.72
2023-02-03T23:40:50.999Z,99830.69
2023-02-03T23:45:52.819Z,99821.00
2023-02-03T23:50:54.541Z,99828.50
2023-02-03T23:55:56.154Z,99824.31
